sensor_id;sensor_type;location;lat;lon;timestamp;temperature;humidity
9537;DHT22;4807;48.024;11.726;2023-10-13T00:01:47;15.60;80.20
9537;DHT22;4807;48.024;11.726;2023-10-13T00:04:58;15.60;80.30
9537;DHT22;4807;48.024;11.726;2023-10-13T00:08:09;15.60;79.10
9537;DHT22;4807;48.024;11.726;2023-10-13T00:11:17;15.60;80.90
9537;DHT22;4807;48.024;11.726;2023-10-13T00:14:28;15.60;80.90
9537;DHT22;4807;48.024;11.726;2023-10-13T00:17:40;15.60;80.30
9537;DHT22;4807;48.024;11.726;2023-10-13T00:20:50;15.60;78.80
9537;DHT22;4807;48.024;11.726;2023-10-13T00:24:00;15.60;78.90
9537;DHT22;4807;48.024;11.726;2023-10-13T00:27:14;15.70;78.30
9537;DHT22;4807;48.024;11.726;2023-10-13T00:30:36;15.70;77.10
9537;DHT22;4807;48.024;11.726;2023-10-13T00:33:45;15.60;77.30
9537;DHT22;4807;48.024;11.726;2023-10-13T00:36:53;15.50;77.60
9537;DHT22;4807;48.024;11.726;2023-10-13T00:40:18;15.40;77.70
9537;DHT22;4807;48.024;11.726;2023-10-13T00:43:47;15.40;78.50
9537;DHT22;4807;48.024;11.726;2023-10-13T00:47:11;15.40;78.90
9537;DHT22;4807;48.024;11.726;2023-10-13T00:50:24;15.50;78.70
9537;DHT22;4807;48.024;11.726;2023-10-13T00:53:35;15.60;78.00
9537;DHT22;4807;48.024;11.726;2023-10-13T00:56:48;15.60;78.00
9537;DHT22;4807;48.024;11.726;2023-10-13T01:00:06;15.50;79.40
9537;DHT22;4807;48.024;11.726;2023-10-13T01:03:26;15.50;79.70
9537;DHT22;4807;48.024;11.726;2023-10-13T01:06:35;15.40;79.40
9537;DHT22;4807;48.024;11.726;2023-10-13T01:09:45;15.60;78.60
9537;DHT22;4807;48.024;11.726;2023-10-13T01:12:55;15.50;77.90
9537;DHT22;4807;48.024;11.726;2023-10-13T01:16:05;15.50;78.60
9537;DHT22;4807;48.024;11.726;2023-10-13T01:19:15;15.60;77.80
9537;DHT22;4807;48.024;11.726;2023-10-13T01:22:26;15.40;77.20
9537;DHT22;4807;48.024;11.726;2023-10-13T01:25:37;15.40;76.30
9537;DHT22;4807;48.024;11.726;2023-10-13T01:28:47;15.30;77.00
9537;DHT22;4807;48.024;11.726;2023-10-13T01:31:57;15.40;75.80
9537;DHT22;4807;48.024;11.726;2023-10-13T01:35:06;15.40;75.20
9537;DHT22;4807;48.024;11.726;2023-10-13T01:38:15;15.30;76.20
9537;DHT22;4807;48.024;11.726;2023-10-13T01:41:25;15.30;75.10
9537;DHT22;4807;48.024;11.726;2023-10-13T01:44:33;15.30;75.70
9537;DHT22;4807;48.024;11.726;2023-10-13T01:47:42;15.30;77.50
9537;DHT22;4807;48.024;11.726;2023-10-13T01:50:56;15.30;75.70
9537;DHT22;4807;48.024;11.726;2023-10-13T01:54:07;15.20;75.60
9537;DHT22;4807;48.024;11.726;2023-10-13T01:57:20;15.20;75.40
9537;DHT22;4807;48.024;11.726;2023-10-13T02:00:31;15.20;75.80
9537;DHT22;4807;48.024;11.726;2023-10-13T02:03:41;15.10;75.30
9537;DHT22;4807;48.024;11.726;2023-10-13T02:06:53;15.20;75.60
9537;DHT22;4807;48.024;11.726;2023-10-13T02:10:03;15.20;75.40
9537;DHT22;4807;48.024;11.726;2023-10-13T02:13:17;15.30;75.20
9537;DHT22;4807;48.024;11.726;2023-10-13T02:16:30;15.30;74.80
9537;DHT22;4807;48.024;11.726;2023-10-13T02:19:39;15.30;74.90
9537;DHT22;4807;48.024;11.726;2023-10-13T02:22:52;15.30;74.40
9537;DHT22;4807;48.024;11.726;2023-10-13T02:25:59;15.40;74.10
9537;DHT22;4807;48.024;11.726;2023-10-13T02:29:12;15.40;74.80
9537;DHT22;4807;48.024;11.726;2023-10-13T02:32:25;15.30;74.00
9537;DHT22;4807;48.024;11.726;2023-10-13T02:35:34;15.30;73.90
9537;DHT22;4807;48.024;11.726;2023-10-13T02:38:48;15.20;74.40
9537;DHT22;4807;48.024;11.726;2023-10-13T02:41:57;15.10;74.40
9537;DHT22;4807;48.024;11.726;2023-10-13T02:45:09;15.00;76.30
9537;DHT22;4807;48.024;11.726;2023-10-13T02:48:19;14.90;76.70
9537;DHT22;4807;48.024;11.726;2023-10-13T02:51:28;14.70;78.40
9537;DHT22;4807;48.024;11.726;2023-10-13T02:54:43;14.50;78.50
9537;DHT22;4807;48.024;11.726;2023-10-13T02:57:54;14.30;79.40
9537;DHT22;4807;48.024;11.726;2023-10-13T03:01:07;14.10;79.40
9537;DHT22;4807;48.024;11.726;2023-10-13T03:04:24;13.90;80.60
9537;DHT22;4807;48.024;11.726;2023-10-13T03:07:32;13.70;81.80
9537;DHT22;4807;48.024;11.726;2023-10-13T03:10:43;13.60;83.10
9537;DHT22;4807;48.024;11.726;2023-10-13T03:13:56;13.40;83.80
9537;DHT22;4807;48.024;11.726;2023-10-13T03:17:06;13.30;84.10
9537;DHT22;4807;48.024;11.726;2023-10-13T03:20:17;13.20;84.50
9537;DHT22;4807;48.024;11.726;2023-10-13T03:23:30;13.10;84.80
9537;DHT22;4807;48.024;11.726;2023-10-13T03:26:52;13.00;85.00
9537;DHT22;4807;48.024;11.726;2023-10-13T03:30:00;12.90;85.20
9537;DHT22;4807;48.024;11.726;2023-10-13T03:33:17;12.90;85.80
9537;DHT22;4807;48.024;11.726;2023-10-13T03:36:33;12.80;86.00
9537;DHT22;4807;48.024;11.726;2023-10-13T03:39:59;12.70;86.60
9537;DHT22;4807;48.024;11.726;2023-10-13T03:43:07;12.80;88.20
9537;DHT22;4807;48.024;11.726;2023-10-13T03:46:18;12.70;88.40
9537;DHT22;4807;48.024;11.726;2023-10-13T03:49:31;12.60;88.30
9537;DHT22;4807;48.024;11.726;2023-10-13T04:00:15;12.60;86.60
9537;DHT22;4807;48.024;11.726;2023-10-13T04:03:31;12.70;86.90
9537;DHT22;4807;48.024;11.726;2023-10-13T04:06:44;12.80;86.40
9537;DHT22;4807;48.024;11.726;2023-10-13T04:10:20;12.80;85.60
9537;DHT22;4807;48.024;11.726;2023-10-13T04:13:46;12.90;85.40
9537;DHT22;4807;48.024;11.726;2023-10-13T04:17:27;12.80;86.50
9537;DHT22;4807;48.024;11.726;2023-10-13T04:20:36;12.70;86.70
9537;DHT22;4807;48.024;11.726;2023-10-13T04:23:46;12.50;87.10
9537;DHT22;4807;48.024;11.726;2023-10-13T04:27:30;11.40;86.20
9537;DHT22;4807;48.024;11.726;2023-10-13T04:30:48;12.40;88.00
9537;DHT22;4807;48.024;11.726;2023-10-13T04:34:06;12.40;88.10
9537;DHT22;4807;48.024;11.726;2023-10-13T04:37:22;12.30;88.10
9537;DHT22;4807;48.024;11.726;2023-10-13T04:40:40;12.30;88.20
9537;DHT22;4807;48.024;11.726;2023-10-13T04:44:06;12.40;88.20
9537;DHT22;4807;48.024;11.726;2023-10-13T04:47:30;12.40;87.70
9537;DHT22;4807;48.024;11.726;2023-10-13T04:50:49;12.40;87.00
9537;DHT22;4807;48.024;11.726;2023-10-13T04:54:00;12.50;88.00
9537;DHT22;4807;48.024;11.726;2023-10-13T04:57:12;12.40;87.40
9537;DHT22;4807;48.024;11.726;2023-10-13T05:00:35;12.50;87.30
9537;DHT22;4807;48.024;11.726;2023-10-13T05:04:01;12.40;87.00
9537;DHT22;4807;48.024;11.726;2023-10-13T05:07:28;12.40;87.10
9537;DHT22;4807;48.024;11.726;2023-10-13T05:10:54;12.40;87.50
9537;DHT22;4807;48.024;11.726;2023-10-13T05:14:18;12.40;87.40
9537;DHT22;4807;48.024;11.726;2023-10-13T05:17:44;12.40;87.60
9537;DHT22;4807;48.024;11.726;2023-10-13T05:21:10;12.30;87.50
9537;DHT22;4807;48.024;11.726;2023-10-13T05:24:36;12.30;87.50
9537;DHT22;4807;48.024;11.726;2023-10-13T05:28:02;12.30;87.30
9537;DHT22;4807;48.024;11.726;2023-10-13T05:31:42;12.30;87.20
9537;DHT22;4807;48.024;11.726;2023-10-13T05:35:08;12.30;87.20
9537;DHT22;4807;48.024;11.726;2023-10-13T05:38:35;12.30;87.40
9537;DHT22;4807;48.024;11.726;2023-10-13T05:42:01;12.30;87.80
9537;DHT22;4807;48.024;11.726;2023-10-13T05:45:28;12.20;87.70
9537;DHT22;4807;48.024;11.726;2023-10-13T05:49:07;12.30;87.60
9537;DHT22;4807;48.024;11.726;2023-10-13T05:52:47;12.30;87.30
9537;DHT22;4807;48.024;11.726;2023-10-13T05:56:12;12.50;86.10
9537;DHT22;4807;48.024;11.726;2023-10-13T05:59:39;12.40;86.70
9537;DHT22;4807;48.024;11.726;2023-10-13T06:03:19;12.40;86.70
9537;DHT22;4807;48.024;11.726;2023-10-13T06:06:47;12.50;87.10
9537;DHT22;4807;48.024;11.726;2023-10-13T06:10:13;12.70;86.50
9537;DHT22;4807;48.024;11.726;2023-10-13T06:13:39;12.60;87.10
9537;DHT22;4807;48.024;11.726;2023-10-13T06:17:05;12.70;87.20
9537;DHT22;4807;48.024;11.726;2023-10-13T06:20:32;12.90;86.60
9537;DHT22;4807;48.024;11.726;2023-10-13T06:24:05;13.00;86.00
9537;DHT22;4807;48.024;11.726;2023-10-13T06:27:28;13.10;86.30
9537;DHT22;4807;48.024;11.726;2023-10-13T06:30:57;12.60;85.70
9537;DHT22;4807;48.024;11.726;2023-10-13T06:34:08;13.50;86.20
9537;DHT22;4807;48.024;11.726;2023-10-13T06:37:16;13.50;85.60
9537;DHT22;4807;48.024;11.726;2023-10-13T06:40:34;13.60;86.40
9537;DHT22;4807;48.024;11.726;2023-10-13T06:43:44;13.60;86.20
9537;DHT22;4807;48.024;11.726;2023-10-13T06:46:53;13.70;86.10
9537;DHT22;4807;48.024;11.726;2023-10-13T06:50:01;13.80;86.10
9537;DHT22;4807;48.024;11.726;2023-10-13T06:53:10;13.90;86.40
9537;DHT22;4807;48.024;11.726;2023-10-13T06:56:21;14.00;85.90
9537;DHT22;4807;48.024;11.726;2023-10-13T06:59:34;14.20;85.60
9537;DHT22;4807;48.024;11.726;2023-10-13T07:02:43;14.30;85.30
9537;DHT22;4807;48.024;11.726;2023-10-13T07:05:52;14.40;85.40
9537;DHT22;4807;48.024;11.726;2023-10-13T07:09:06;14.40;84.90
9537;DHT22;4807;48.024;11.726;2023-10-13T07:12:23;14.50;85.80
9537;DHT22;4807;48.024;11.726;2023-10-13T07:15:34;14.70;83.80
9537;DHT22;4807;48.024;11.726;2023-10-13T07:18:51;14.90;83.10
9537;DHT22;4807;48.024;11.726;2023-10-13T07:22:02;15.00;83.10
9537;DHT22;4807;48.024;11.726;2023-10-13T07:25:26;15.10;83.40
9537;DHT22;4807;48.024;11.726;2023-10-13T07:28:41;15.30;83.00
9537;DHT22;4807;48.024;11.726;2023-10-13T07:31:52;15.50;83.50
9537;DHT22;4807;48.024;11.726;2023-10-13T07:35:00;15.60;83.20
9537;DHT22;4807;48.024;11.726;2023-10-13T07:38:14;15.70;84.00
9537;DHT22;4807;48.024;11.726;2023-10-13T07:41:23;15.80;84.00
9537;DHT22;4807;48.024;11.726;2023-10-13T07:44:39;15.90;83.80
9537;DHT22;4807;48.024;11.726;2023-10-13T07:47:53;16.10;82.60
9537;DHT22;4807;48.024;11.726;2023-10-13T07:51:04;16.30;83.00
9537;DHT22;4807;48.024;11.726;2023-10-13T07:54:18;16.50;83.10
9537;DHT22;4807;48.024;11.726;2023-10-13T07:57:29;16.60;82.20
9537;DHT22;4807;48.024;11.726;2023-10-13T08:00:39;16.80;82.90
9537;DHT22;4807;48.024;11.726;2023-10-13T08:04:01;17.20;81.70
9537;DHT22;4807;48.024;11.726;2023-10-13T08:07:18;17.40;81.90
9537;DHT22;4807;48.024;11.726;2023-10-13T08:10:35;17.60;79.30
9537;DHT22;4807;48.024;11.726;2023-10-13T08:13:44;17.80;80.00
9537;DHT22;4807;48.024;11.726;2023-10-13T08:17:13;18.10;79.00
9537;DHT22;4807;48.024;11.726;2023-10-13T08:20:22;18.20;78.00
9537;DHT22;4807;48.024;11.726;2023-10-13T08:23:33;18.40;78.40
9537;DHT22;4807;48.024;11.726;2023-10-13T08:27:06;18.60;77.80
9537;DHT22;4807;48.024;11.726;2023-10-13T08:30:38;18.90;76.40
9537;DHT22;4807;48.024;11.726;2023-10-13T08:34:02;19.10;76.70
9537;DHT22;4807;48.024;11.726;2023-10-13T08:37:13;19.30;76.40
9537;DHT22;4807;48.024;11.726;2023-10-13T08:40:35;19.40;76.50
9537;DHT22;4807;48.024;11.726;2023-10-13T08:44:02;19.50;76.30
9537;DHT22;4807;48.024;11.726;2023-10-13T08:47:14;19.70;75.60
9537;DHT22;4807;48.024;11.726;2023-10-13T08:50:27;19.80;74.90
9537;DHT22;4807;48.024;11.726;2023-10-13T08:53:55;20.00;74.50
9537;DHT22;4807;48.024;11.726;2023-10-13T08:57:15;20.20;74.10
9537;DHT22;4807;48.024;11.726;2023-10-13T09:00:42;20.40;71.90
9537;DHT22;4807;48.024;11.726;2023-10-13T09:04:19;20.50;71.80
9537;DHT22;4807;48.024;11.726;2023-10-13T09:07:30;20.70;69.90
9537;DHT22;4807;48.024;11.726;2023-10-13T09:10:49;20.90;70.50
9537;DHT22;4807;48.024;11.726;2023-10-13T09:14:13;21.10;69.40
9537;DHT22;4807;48.024;11.726;2023-10-13T09:17:41;21.30;68.40
9537;DHT22;4807;48.024;11.726;2023-10-13T09:20:59;21.50;66.50
9537;DHT22;4807;48.024;11.726;2023-10-13T09:24:26;21.70;63.10
9537;DHT22;4807;48.024;11.726;2023-10-13T09:27:39;21.90;63.60
9537;DHT22;4807;48.024;11.726;2023-10-13T09:30:49;22.00;63.00
9537;DHT22;4807;48.024;11.726;2023-10-13T09:33:59;22.10;63.30
9537;DHT22;4807;48.024;11.726;2023-10-13T09:37:09;22.30;65.70
9537;DHT22;4807;48.024;11.726;2023-10-13T09:40:23;22.50;64.40
9537;DHT22;4807;48.024;11.726;2023-10-13T09:43:41;22.60;62.70
9537;DHT22;4807;48.024;11.726;2023-10-13T09:46:51;22.70;62.30
9537;DHT22;4807;48.024;11.726;2023-10-13T09:50:00;22.90;62.50
9537;DHT22;4807;48.024;11.726;2023-10-13T09:53:12;23.10;61.80
9537;DHT22;4807;48.024;11.726;2023-10-13T09:56:29;23.30;59.80
9537;DHT22;4807;48.024;11.726;2023-10-13T10:00:05;23.40;59.70
9537;DHT22;4807;48.024;11.726;2023-10-13T10:03:44;22.70;60.20
9537;DHT22;4807;48.024;11.726;2023-10-13T10:06:59;23.80;55.20
9537;DHT22;4807;48.024;11.726;2023-10-13T10:10:08;23.70;56.60
9537;DHT22;4807;48.024;11.726;2023-10-13T10:13:24;23.40;55.80
9537;DHT22;4807;48.024;11.726;2023-10-13T10:16:50;23.10;54.60
9537;DHT22;4807;48.024;11.726;2023-10-13T10:20:12;22.80;56.00
9537;DHT22;4807;48.024;11.726;2023-10-13T10:23:27;22.50;56.60
9537;DHT22;4807;48.024;11.726;2023-10-13T10:26:50;22.30;60.10
9537;DHT22;4807;48.024;11.726;2023-10-13T10:30:01;22.10;61.50
9537;DHT22;4807;48.024;11.726;2023-10-13T10:33:12;22.20;64.00
9537;DHT22;4807;48.024;11.726;2023-10-13T10:36:28;22.40;63.70
9537;DHT22;4807;48.024;11.726;2023-10-13T10:39:37;22.80;61.50
9537;DHT22;4807;48.024;11.726;2023-10-13T10:42:53;23.20;63.00
9537;DHT22;4807;48.024;11.726;2023-10-13T10:46:04;23.40;60.90
9537;DHT22;4807;48.024;11.726;2023-10-13T10:49:12;23.60;59.20
9537;DHT22;4807;48.024;11.726;2023-10-13T10:52:27;23.80;58.60
9537;DHT22;4807;48.024;11.726;2023-10-13T10:55:43;24.00;59.00
9537;DHT22;4807;48.024;11.726;2023-10-13T10:58:56;24.00;59.50
9537;DHT22;4807;48.024;11.726;2023-10-13T11:02:07;24.00;59.60
9537;DHT22;4807;48.024;11.726;2023-10-13T11:05:15;25.40;56.20
9537;DHT22;4807;48.024;11.726;2023-10-13T11:08:26;24.20;56.40
9537;DHT22;4807;48.024;11.726;2023-10-13T11:11:39;24.30;55.20
9537;DHT22;4807;48.024;11.726;2023-10-13T11:15:00;24.50;55.30
9537;DHT22;4807;48.024;11.726;2023-10-13T11:18:11;24.60;53.70
9537;DHT22;4807;48.024;11.726;2023-10-13T11:21:29;24.60;53.30
9537;DHT22;4807;48.024;11.726;2023-10-13T11:24:42;24.50;52.60
9537;DHT22;4807;48.024;11.726;2023-10-13T11:27:52;24.50;52.20
9537;DHT22;4807;48.024;11.726;2023-10-13T11:31:06;24.60;57.20
9537;DHT22;4807;48.024;11.726;2023-10-13T11:34:22;24.60;58.80
9537;DHT22;4807;48.024;11.726;2023-10-13T11:37:30;24.60;57.50
9537;DHT22;4807;48.024;11.726;2023-10-13T11:40:46;24.60;57.80
9537;DHT22;4807;48.024;11.726;2023-10-13T11:44:14;24.60;58.30
9537;DHT22;4807;48.024;11.726;2023-10-13T11:47:32;24.60;57.90
9537;DHT22;4807;48.024;11.726;2023-10-13T11:50:56;24.50;59.30
9537;DHT22;4807;48.024;11.726;2023-10-13T11:54:04;24.50;58.60
9537;DHT22;4807;48.024;11.726;2023-10-13T11:57:12;24.40;60.80
9537;DHT22;4807;48.024;11.726;2023-10-13T12:00:23;24.40;59.20
9537;DHT22;4807;48.024;11.726;2023-10-13T12:03:57;24.40;58.80
9537;DHT22;4807;48.024;11.726;2023-10-13T12:07:26;24.40;60.20
9537;DHT22;4807;48.024;11.726;2023-10-13T12:10:52;24.50;61.10
9537;DHT22;4807;48.024;11.726;2023-10-13T12:14:27;24.50;59.40
9537;DHT22;4807;48.024;11.726;2023-10-13T12:17:36;24.50;59.20
9537;DHT22;4807;48.024;11.726;2023-10-13T12:20:46;24.50;60.90
9537;DHT22;4807;48.024;11.726;2023-10-13T12:23:58;24.50;62.00
9537;DHT22;4807;48.024;11.726;2023-10-13T12:27:08;24.50;60.10
9537;DHT22;4807;48.024;11.726;2023-10-13T12:30:41;24.60;61.70
9537;DHT22;4807;48.024;11.726;2023-10-13T12:33:57;24.60;61.60
9537;DHT22;4807;48.024;11.726;2023-10-13T12:37:13;24.70;61.10
9537;DHT22;4807;48.024;11.726;2023-10-13T12:40:48;24.70;61.20
9537;DHT22;4807;48.024;11.726;2023-10-13T12:44:39;24.70;60.00
9537;DHT22;4807;48.024;11.726;2023-10-13T12:48:06;24.70;59.40
9537;DHT22;4807;48.024;11.726;2023-10-13T12:51:32;24.60;59.30
9537;DHT22;4807;48.024;11.726;2023-10-13T12:54:59;24.60;59.70
9537;DHT22;4807;48.024;11.726;2023-10-13T12:58:18;24.60;59.50
9537;DHT22;4807;48.024;11.726;2023-10-13T13:01:33;24.60;59.30
9537;DHT22;4807;48.024;11.726;2023-10-13T13:04:42;24.60;59.10
9537;DHT22;4807;48.024;11.726;2023-10-13T13:07:51;24.60;58.00
9537;DHT22;4807;48.024;11.726;2023-10-13T13:11:02;24.60;58.40
9537;DHT22;4807;48.024;11.726;2023-10-13T13:14:12;24.60;57.10
9537;DHT22;4807;48.024;11.726;2023-10-13T13:17:20;24.50;58.00
9537;DHT22;4807;48.024;11.726;2023-10-13T13:20:29;24.60;56.00
9537;DHT22;4807;48.024;11.726;2023-10-13T13:23:37;24.60;56.70
9537;DHT22;4807;48.024;11.726;2023-10-13T13:26:46;24.60;56.80
9537;DHT22;4807;48.024;11.726;2023-10-13T13:29:57;24.70;56.70
9537;DHT22;4807;48.024;11.726;2023-10-13T13:33:06;24.80;56.60
9537;DHT22;4807;48.024;11.726;2023-10-13T13:36:18;24.80;56.70
9537;DHT22;4807;48.024;11.726;2023-10-13T13:39:29;24.90;56.30
9537;DHT22;4807;48.024;11.726;2023-10-13T13:42:38;24.90;55.90
9537;DHT22;4807;48.024;11.726;2023-10-13T13:45:49;24.90;55.90
9537;DHT22;4807;48.024;11.726;2023-10-13T13:49:04;24.90;56.50
9537;DHT22;4807;48.024;11.726;2023-10-13T13:52:15;24.80;56.40
9537;DHT22;4807;48.024;11.726;2023-10-13T13:55:25;24.70;57.60
9537;DHT22;4807;48.024;11.726;2023-10-13T13:58:36;24.60;57.10
9537;DHT22;4807;48.024;11.726;2023-10-13T14:01:46;24.70;55.30
9537;DHT22;4807;48.024;11.726;2023-10-13T14:04:55;24.60;56.60
9537;DHT22;4807;48.024;11.726;2023-10-13T14:08:05;24.60;58.10
9537;DHT22;4807;48.024;11.726;2023-10-13T14:11:19;24.60;57.10
9537;DHT22;4807;48.024;11.726;2023-10-13T14:14:52;24.50;58.30
9537;DHT22;4807;48.024;11.726;2023-10-13T14:18:08;24.50;57.90
9537;DHT22;4807;48.024;11.726;2023-10-13T14:21:26;24.60;57.20
9537;DHT22;4807;48.024;11.726;2023-10-13T14:24:39;24.50;56.80
9537;DHT22;4807;48.024;11.726;2023-10-13T14:27:55;24.60;58.10
9537;DHT22;4807;48.024;11.726;2023-10-13T14:31:05;24.50;58.30
9537;DHT22;4807;48.024;11.726;2023-10-13T14:34:18;24.60;59.50
9537;DHT22;4807;48.024;11.726;2023-10-13T14:37:29;24.50;60.50
9537;DHT22;4807;48.024;11.726;2023-10-13T14:40:39;24.30;60.50
9537;DHT22;4807;48.024;11.726;2023-10-13T14:43:48;24.30;60.70
9537;DHT22;4807;48.024;11.726;2023-10-13T14:46:56;24.10;61.00
9537;DHT22;4807;48.024;11.726;2023-10-13T14:50:07;24.00;61.20
9537;DHT22;4807;48.024;11.726;2023-10-13T14:53:22;23.90;62.80
9537;DHT22;4807;48.024;11.726;2023-10-13T14:56:31;23.70;62.60
9537;DHT22;4807;48.024;11.726;2023-10-13T14:59:39;23.60;61.80
9537;DHT22;4807;48.024;11.726;2023-10-13T15:02:47;22.00;60.70
9537;DHT22;4807;48.024;11.726;2023-10-13T15:05:58;23.30;62.60
9537;DHT22;4807;48.024;11.726;2023-10-13T15:09:06;23.20;65.00
9537;DHT22;4807;48.024;11.726;2023-10-13T15:12:18;23.10;65.20
9537;DHT22;4807;48.024;11.726;2023-10-13T15:15:32;23.10;64.60
9537;DHT22;4807;48.024;11.726;2023-10-13T15:18:43;23.00;64.90
9537;DHT22;4807;48.024;11.726;2023-10-13T15:21:54;22.90;66.50
9537;DHT22;4807;48.024;11.726;2023-10-13T15:25:04;22.80;67.70
9537;DHT22;4807;48.024;11.726;2023-10-13T15:28:24;22.60;67.20
9537;DHT22;4807;48.024;11.726;2023-10-13T15:31:40;22.50;67.70
9537;DHT22;4807;48.024;11.726;2023-10-13T15:34:48;22.40;67.80
9537;DHT22;4807;48.024;11.726;2023-10-13T15:37:58;22.30;69.00
9537;DHT22;4807;48.024;11.726;2023-10-13T15:41:07;22.20;69.30
9537;DHT22;4807;48.024;11.726;2023-10-13T15:44:16;22.00;70.80
9537;DHT22;4807;48.024;11.726;2023-10-13T15:47:29;21.90;70.90
9537;DHT22;4807;48.024;11.726;2023-10-13T15:50:43;21.70;70.50
9537;DHT22;4807;48.024;11.726;2023-10-13T15:53:54;21.60;71.50
9537;DHT22;4807;48.024;11.726;2023-10-13T15:57:03;21.30;71.70
9537;DHT22;4807;48.024;11.726;2023-10-13T16:00:13;21.20;72.20
9537;DHT22;4807;48.024;11.726;2023-10-13T16:03:31;20.90;72.60
9537;DHT22;4807;48.024;11.726;2023-10-13T16:06:40;20.80;73.30
9537;DHT22;4807;48.024;11.726;2023-10-13T16:09:55;20.60;73.80
9537;DHT22;4807;48.024;11.726;2023-10-13T16:13:07;20.40;74.30
9537;DHT22;4807;48.024;11.726;2023-10-13T16:16:24;20.20;74.80
9537;DHT22;4807;48.024;11.726;2023-10-13T16:19:32;19.90;75.60
9537;DHT22;4807;48.024;11.726;2023-10-13T16:22:44;19.70;76.70
9537;DHT22;4807;48.024;11.726;2023-10-13T16:25:56;19.30;78.40
9537;DHT22;4807;48.024;11.726;2023-10-13T16:29:09;19.30;79.10
9537;DHT22;4807;48.024;11.726;2023-10-13T16:32:17;19.00;79.80
9537;DHT22;4807;48.024;11.726;2023-10-13T16:35:29;18.80;81.00
9537;DHT22;4807;48.024;11.726;2023-10-13T16:38:40;18.70;82.10
9537;DHT22;4807;48.024;11.726;2023-10-13T16:41:54;18.50;83.40
9537;DHT22;4807;48.024;11.726;2023-10-13T16:45:03;18.30;84.30
9537;DHT22;4807;48.024;11.726;2023-10-13T16:48:22;18.10;84.80
9537;DHT22;4807;48.024;11.726;2023-10-13T16:51:33;17.90;85.60
9537;DHT22;4807;48.024;11.726;2023-10-13T16:54:42;17.70;86.20
9537;DHT22;4807;48.024;11.726;2023-10-13T16:57:52;17.60;86.70
9537;DHT22;4807;48.024;11.726;2023-10-13T17:01:02;17.60;86.30
9537;DHT22;4807;48.024;11.726;2023-10-13T17:04:16;17.70;86.90
9537;DHT22;4807;48.024;11.726;2023-10-13T17:07:27;17.50;87.30
9537;DHT22;4807;48.024;11.726;2023-10-13T17:10:36;17.30;87.80
9537;DHT22;4807;48.024;11.726;2023-10-13T17:13:47;17.20;88.50
9537;DHT22;4807;48.024;11.726;2023-10-13T17:16:56;17.00;89.00
9537;DHT22;4807;48.024;11.726;2023-10-13T17:20:08;16.80;89.50
9537;DHT22;4807;48.024;11.726;2023-10-13T17:23:17;16.70;90.10
9537;DHT22;4807;48.024;11.726;2023-10-13T17:26:26;16.50;90.00
9537;DHT22;4807;48.024;11.726;2023-10-13T17:29:36;16.40;90.20
9537;DHT22;4807;48.024;11.726;2023-10-13T17:32:44;16.30;91.00
9537;DHT22;4807;48.024;11.726;2023-10-13T17:35:52;16.20;90.80
9537;DHT22;4807;48.024;11.726;2023-10-13T17:39:01;16.10;91.10
9537;DHT22;4807;48.024;11.726;2023-10-13T17:42:09;16.10;91.40
9537;DHT22;4807;48.024;11.726;2023-10-13T17:45:21;16.00;91.80
9537;DHT22;4807;48.024;11.726;2023-10-13T17:48:31;15.90;92.00
9537;DHT22;4807;48.024;11.726;2023-10-13T17:51:40;15.80;91.80
9537;DHT22;4807;48.024;11.726;2023-10-13T17:54:50;15.70;91.80
9537;DHT22;4807;48.024;11.726;2023-10-13T17:57:59;15.60;91.90
9537;DHT22;4807;48.024;11.726;2023-10-13T18:01:10;15.70;91.90
9537;DHT22;4807;48.024;11.726;2023-10-13T18:04:25;16.00;90.90
9537;DHT22;4807;48.024;11.726;2023-10-13T18:07:37;16.00;90.80
9537;DHT22;4807;48.024;11.726;2023-10-13T18:10:51;15.60;91.20
9537;DHT22;4807;48.024;11.726;2023-10-13T18:14:00;15.40;91.80
9537;DHT22;4807;48.024;11.726;2023-10-13T18:17:09;15.20;92.10
9537;DHT22;4807;48.024;11.726;2023-10-13T18:20:22;15.20;92.50
9537;DHT22;4807;48.024;11.726;2023-10-13T18:23:32;15.10;92.70
9537;DHT22;4807;48.024;11.726;2023-10-13T18:26:40;15.20;92.60
9537;DHT22;4807;48.024;11.726;2023-10-13T18:29:50;15.20;92.80
9537;DHT22;4807;48.024;11.726;2023-10-13T18:33:00;15.10;92.60
9537;DHT22;4807;48.024;11.726;2023-10-13T18:36:12;15.10;92.60
9537;DHT22;4807;48.024;11.726;2023-10-13T18:39:22;15.00;92.60
9537;DHT22;4807;48.024;11.726;2023-10-13T18:42:40;14.90;92.80
9537;DHT22;4807;48.024;11.726;2023-10-13T18:45:59;15.00;92.60
9537;DHT22;4807;48.024;11.726;2023-10-13T18:49:10;15.00;92.90
9537;DHT22;4807;48.024;11.726;2023-10-13T18:52:21;15.00;92.90
9537;DHT22;4807;48.024;11.726;2023-10-13T18:55:30;15.10;92.80
9537;DHT22;4807;48.024;11.726;2023-10-13T18:58:42;15.20;93.00
9537;DHT22;4807;48.024;11.726;2023-10-13T19:02:00;15.00;92.90
9537;DHT22;4807;48.024;11.726;2023-10-13T19:05:10;14.90;93.00
9537;DHT22;4807;48.024;11.726;2023-10-13T19:08:19;14.80;93.20
9537;DHT22;4807;48.024;11.726;2023-10-13T19:11:29;14.70;93.20
9537;DHT22;4807;48.024;11.726;2023-10-13T19:14:41;14.60;93.40
9537;DHT22;4807;48.024;11.726;2023-10-13T19:17:49;14.50;93.50
9537;DHT22;4807;48.024;11.726;2023-10-13T19:21:01;14.50;93.50
9537;DHT22;4807;48.024;11.726;2023-10-13T19:24:12;14.50;93.40
9537;DHT22;4807;48.024;11.726;2023-10-13T19:27:22;14.50;93.70
9537;DHT22;4807;48.024;11.726;2023-10-13T19:30:38;14.40;93.60
9537;DHT22;4807;48.024;11.726;2023-10-13T19:33:51;14.30;93.80
9537;DHT22;4807;48.024;11.726;2023-10-13T19:37:03;14.20;93.90
9537;DHT22;4807;48.024;11.726;2023-10-13T19:40:11;14.10;94.00
9537;DHT22;4807;48.024;11.726;2023-10-13T19:43:20;14.00;94.00
9537;DHT22;4807;48.024;11.726;2023-10-13T19:46:30;13.90;94.00
9537;DHT22;4807;48.024;11.726;2023-10-13T19:49:39;13.80;94.10
9537;DHT22;4807;48.024;11.726;2023-10-13T19:52:52;13.90;94.00
9537;DHT22;4807;48.024;11.726;2023-10-13T19:56:00;13.90;94.00
9537;DHT22;4807;48.024;11.726;2023-10-13T19:59:12;13.80;94.00
9537;DHT22;4807;48.024;11.726;2023-10-13T20:02:20;13.80;94.20
9537;DHT22;4807;48.024;11.726;2023-10-13T20:05:29;13.70;94.40
9537;DHT22;4807;48.024;11.726;2023-10-13T20:08:39;13.70;94.20
9537;DHT22;4807;48.024;11.726;2023-10-13T20:11:48;13.80;94.20
9537;DHT22;4807;48.024;11.726;2023-10-13T20:14:56;13.70;94.10
9537;DHT22;4807;48.024;11.726;2023-10-13T20:18:04;13.70;94.40
9537;DHT22;4807;48.024;11.726;2023-10-13T20:21:15;13.60;94.30
9537;DHT22;4807;48.024;11.726;2023-10-13T20:24:26;13.70;94.20
9537;DHT22;4807;48.024;11.726;2023-10-13T20:27:34;13.70;94.10
9537;DHT22;4807;48.024;11.726;2023-10-13T20:30:45;13.60;94.10
9537;DHT22;4807;48.024;11.726;2023-10-13T20:33:53;13.50;94.20
9537;DHT22;4807;48.024;11.726;2023-10-13T20:37:03;13.50;94.20
9537;DHT22;4807;48.024;11.726;2023-10-13T20:40:15;13.30;94.30
9537;DHT22;4807;48.024;11.726;2023-10-13T20:43:26;13.20;94.70
9537;DHT22;4807;48.024;11.726;2023-10-13T20:46:35;13.20;94.50
9537;DHT22;4807;48.024;11.726;2023-10-13T20:49:45;13.20;94.50
9537;DHT22;4807;48.024;11.726;2023-10-13T20:52:53;13.20;94.20
9537;DHT22;4807;48.024;11.726;2023-10-13T20:56:06;13.30;93.70